Аэропорт: Емельяново. Красноярск

ICAO: UNKL

METAR:
2019/05/26 14:00
UNKL 261400Z 26006MPS 9999 -SHRA SCT027CB 06/05 Q1017 R29/190060 NOSIG RMK QFE737
METAR:
2019/05/26 12:21
TAF UNKL 261100Z 2612/2712 26010G20MPS 8000 -SHRA BKN012CB 
      TEMPO 2612/2615 3100 -SHRA 
      BECMG 2615/2617 27007G15MPS 
     FM261800 26003G10MPS 9999 SCT030 
      TEMPO 2700/2709 28008G14MPS